sensor_id;sensor_type;location;lat;lon;timestamp;P1;durP1;ratioP1;P2;durP2;ratioP2
53519;SDS011;39397;53.204;5.778;2023-06-22T00:00:56;23.63;;;19.27;;
53519;SDS011;39397;53.204;5.778;2023-06-22T00:03:24;25.92;;;19.55;;
53519;SDS011;39397;53.204;5.778;2023-06-22T00:05:51;21.15;;;17.90;;
53519;SDS011;39397;53.204;5.778;2023-06-22T00:08:18;22.27;;;17.40;;
53519;SDS011;39397;53.204;5.778;2023-06-22T00:10:45;26.30;;;20.70;;
53519;SDS011;39397;53.204;5.778;2023-06-22T00:13:11;22.00;;;19.25;;
53519;SDS011;39397;53.204;5.778;2023-06-22T00:15:38;20.33;;;16.40;;
53519;SDS011;39397;53.204;5.778;2023-06-22T00:18:09;21.23;;;16.75;;
53519;SDS011;39397;53.204;5.778;2023-06-22T00:20:35;25.50;;;19.25;;
53519;SDS011;39397;53.204;5.778;2023-06-22T00:23:06;26.23;;;20.05;;
53519;SDS011;39397;53.204;5.778;2023-06-22T00:25:35;26.52;;;20.95;;
53519;SDS011;39397;53.204;5.778;2023-06-22T00:28:07;25.33;;;21.77;;
53519;SDS011;39397;53.204;5.778;2023-06-22T00:30:33;31.77;;;23.55;;
53519;SDS011;39397;53.204;5.778;2023-06-22T00:32:59;29.85;;;22.08;;
53519;SDS011;39397;53.204;5.778;2023-06-22T00:35:26;33.20;;;23.73;;
53519;SDS011;39397;53.204;5.778;2023-06-22T00:37:57;30.90;;;23.83;;
53519;SDS011;39397;53.204;5.778;2023-06-22T00:40:25;31.08;;;25.75;;
53519;SDS011;39397;53.204;5.778;2023-06-22T00:42:52;28.65;;;20.48;;
53519;SDS011;39397;53.204;5.778;2023-06-22T00:45:18;26.05;;;21.35;;
53519;SDS011;39397;53.204;5.778;2023-06-22T00:47:44;26.58;;;21.27;;
53519;SDS011;39397;53.204;5.778;2023-06-22T00:50:10;28.65;;;22.52;;
53519;SDS011;39397;53.204;5.778;2023-06-22T00:52:43;25.95;;;21.95;;
53519;SDS011;39397;53.204;5.778;2023-06-22T00:55:09;26.27;;;23.42;;
53519;SDS011;39397;53.204;5.778;2023-06-22T00:57:35;27.13;;;24.08;;
53519;SDS011;39397;53.204;5.778;2023-06-22T01:00:02;25.50;;;22.65;;
53519;SDS011;39397;53.204;5.778;2023-06-22T01:02:32;24.95;;;22.30;;
53519;SDS011;39397;53.204;5.778;2023-06-22T01:04:59;24.77;;;21.17;;
53519;SDS011;39397;53.204;5.778;2023-06-22T01:12:53;23.65;;;21.00;;
53519;SDS011;39397;53.204;5.778;2023-06-22T01:15:35;26.77;;;22.65;;
53519;SDS011;39397;53.204;5.778;2023-06-22T01:18:05;23.98;;;21.42;;
53519;SDS011;39397;53.204;5.778;2023-06-22T01:20:34;25.65;;;22.95;;
53519;SDS011;39397;53.204;5.778;2023-06-22T01:31:07;25.02;;;21.63;;
53519;SDS011;39397;53.204;5.778;2023-06-22T01:33:37;31.95;;;23.50;;
53519;SDS011;39397;53.204;5.778;2023-06-22T01:36:06;24.73;;;22.15;;
53519;SDS011;39397;53.204;5.778;2023-06-22T01:38:33;26.95;;;22.58;;
53519;SDS011;39397;53.204;5.778;2023-06-22T01:41:00;21.95;;;19.70;;
53519;SDS011;39397;53.204;5.778;2023-06-22T01:43:27;29.02;;;25.98;;
53519;SDS011;39397;53.204;5.778;2023-06-22T01:45:54;29.30;;;24.25;;
53519;SDS011;39397;53.204;5.778;2023-06-22T01:48:21;27.38;;;24.27;;
53519;SDS011;39397;53.204;5.778;2023-06-22T01:50:48;29.48;;;23.65;;
53519;SDS011;39397;53.204;5.778;2023-06-22T01:53:14;25.15;;;22.48;;
53519;SDS011;39397;53.204;5.778;2023-06-22T01:55:40;26.98;;;24.08;;
53519;SDS011;39397;53.204;5.778;2023-06-22T01:58:05;31.60;;;25.27;;
53519;SDS011;39397;53.204;5.778;2023-06-22T02:00:31;29.60;;;26.13;;
53519;SDS011;39397;53.204;5.778;2023-06-22T02:03:02;33.30;;;28.08;;
53519;SDS011;39397;53.204;5.778;2023-06-22T02:08:09;28.35;;;23.75;;
53519;SDS011;39397;53.204;5.778;2023-06-22T02:10:43;27.45;;;23.17;;
53519;SDS011;39397;53.204;5.778;2023-06-22T02:13:10;31.95;;;23.73;;
53519;SDS011;39397;53.204;5.778;2023-06-22T02:15:37;35.53;;;26.98;;
53519;SDS011;39397;53.204;5.778;2023-06-22T02:18:03;28.73;;;25.67;;
53519;SDS011;39397;53.204;5.778;2023-06-22T02:20:30;31.15;;;27.05;;
53519;SDS011;39397;53.204;5.778;2023-06-22T02:22:56;26.45;;;21.80;;
53519;SDS011;39397;53.204;5.778;2023-06-22T02:25:21;27.20;;;24.25;;
53519;SDS011;39397;53.204;5.778;2023-06-22T02:27:47;30.52;;;26.15;;
53519;SDS011;39397;53.204;5.778;2023-06-22T02:30:13;35.45;;;29.85;;
53519;SDS011;39397;53.204;5.778;2023-06-22T02:32:40;50.17;;;28.50;;
53519;SDS011;39397;53.204;5.778;2023-06-22T02:35:08;28.27;;;25.27;;
53519;SDS011;39397;53.204;5.778;2023-06-22T02:37:36;32.13;;;27.92;;
53519;SDS011;39397;53.204;5.778;2023-06-22T02:40:07;32.50;;;25.25;;
53519;SDS011;39397;53.204;5.778;2023-06-22T02:42:39;48.20;;;28.30;;
53519;SDS011;39397;53.204;5.778;2023-06-22T02:45:05;28.17;;;24.25;;
53519;SDS011;39397;53.204;5.778;2023-06-22T02:47:31;67.57;;;28.58;;
53519;SDS011;39397;53.204;5.778;2023-06-22T02:49:57;37.50;;;26.15;;
53519;SDS011;39397;53.204;5.778;2023-06-22T02:52:22;45.17;;;29.42;;
53519;SDS011;39397;53.204;5.778;2023-06-22T02:54:48;35.20;;;27.77;;
53519;SDS011;39397;53.204;5.778;2023-06-22T02:57:14;40.08;;;25.90;;
53519;SDS011;39397;53.204;5.778;2023-06-22T02:59:40;32.08;;;26.63;;
53519;SDS011;39397;53.204;5.778;2023-06-22T03:02:07;73.57;;;28.90;;
53519;SDS011;39397;53.204;5.778;2023-06-22T03:04:34;92.80;;;29.75;;
53519;SDS011;39397;53.204;5.778;2023-06-22T03:07:00;38.30;;;26.98;;
53519;SDS011;39397;53.204;5.778;2023-06-22T03:09:26;30.85;;;27.30;;
53519;SDS011;39397;53.204;5.778;2023-06-22T03:11:53;31.98;;;27.25;;
53519;SDS011;39397;53.204;5.778;2023-06-22T03:14:19;27.35;;;24.65;;
53519;SDS011;39397;53.204;5.778;2023-06-22T03:16:45;37.08;;;25.00;;
53519;SDS011;39397;53.204;5.778;2023-06-22T03:19:11;49.05;;;28.48;;
53519;SDS011;39397;53.204;5.778;2023-06-22T03:21:37;28.17;;;25.42;;
53519;SDS011;39397;53.204;5.778;2023-06-22T03:24:06;26.85;;;24.45;;
53519;SDS011;39397;53.204;5.778;2023-06-22T03:26:32;26.30;;;23.58;;
53519;SDS011;39397;53.204;5.778;2023-06-22T03:28:59;24.48;;;22.15;;
53519;SDS011;39397;53.204;5.778;2023-06-22T03:31:25;26.13;;;23.67;;
53519;SDS011;39397;53.204;5.778;2023-06-22T03:33:51;46.00;;;28.63;;
53519;SDS011;39397;53.204;5.778;2023-06-22T03:36:17;27.90;;;25.10;;
53519;SDS011;39397;53.204;5.778;2023-06-22T03:38:47;28.83;;;26.20;;
53519;SDS011;39397;53.204;5.778;2023-06-22T03:41:14;38.17;;;28.73;;
53519;SDS011;39397;53.204;5.778;2023-06-22T03:43:40;25.60;;;23.05;;
53519;SDS011;39397;53.204;5.778;2023-06-22T03:46:06;26.45;;;23.88;;
53519;SDS011;39397;53.204;5.778;2023-06-22T03:48:32;25.42;;;23.02;;
53519;SDS011;39397;53.204;5.778;2023-06-22T03:51:01;23.27;;;20.98;;
53519;SDS011;39397;53.204;5.778;2023-06-22T03:53:28;24.00;;;21.67;;
53519;SDS011;39397;53.204;5.778;2023-06-22T03:55:54;26.05;;;23.35;;
53519;SDS011;39397;53.204;5.778;2023-06-22T03:58:20;27.00;;;24.38;;
53519;SDS011;39397;53.204;5.778;2023-06-22T04:00:49;24.80;;;22.50;;
53519;SDS011;39397;53.204;5.778;2023-06-22T04:03:16;30.00;;;24.90;;
53519;SDS011;39397;53.204;5.778;2023-06-22T04:05:43;24.05;;;21.75;;
53519;SDS011;39397;53.204;5.778;2023-06-22T04:08:10;25.88;;;23.48;;
53519;SDS011;39397;53.204;5.778;2023-06-22T04:10:36;22.27;;;20.15;;
53519;SDS011;39397;53.204;5.778;2023-06-22T04:13:02;22.20;;;20.38;;
53519;SDS011;39397;53.204;5.778;2023-06-22T04:15:28;25.60;;;23.30;;
53519;SDS011;39397;53.204;5.778;2023-06-22T04:17:54;22.80;;;20.67;;
53519;SDS011;39397;53.204;5.778;2023-06-22T04:20:21;22.73;;;20.52;;
53519;SDS011;39397;53.204;5.778;2023-06-22T04:22:47;21.30;;;19.50;;
53519;SDS011;39397;53.204;5.778;2023-06-22T04:25:12;22.10;;;20.00;;
53519;SDS011;39397;53.204;5.778;2023-06-22T04:27:38;20.33;;;18.63;;
53519;SDS011;39397;53.204;5.778;2023-06-22T04:30:07;20.90;;;19.10;;
53519;SDS011;39397;53.204;5.778;2023-06-22T04:32:36;21.50;;;19.63;;
53519;SDS011;39397;53.204;5.778;2023-06-22T04:35:03;18.33;;;16.80;;
53519;SDS011;39397;53.204;5.778;2023-06-22T04:37:32;19.85;;;18.25;;
53519;SDS011;39397;53.204;5.778;2023-06-22T04:39:58;20.85;;;18.92;;
53519;SDS011;39397;53.204;5.778;2023-06-22T04:42:27;22.35;;;20.35;;
53519;SDS011;39397;53.204;5.778;2023-06-22T04:44:53;24.42;;;18.30;;
53519;SDS011;39397;53.204;5.778;2023-06-22T04:47:19;23.73;;;21.55;;
53519;SDS011;39397;53.204;5.778;2023-06-22T04:49:45;27.92;;;25.13;;
53519;SDS011;39397;53.204;5.778;2023-06-22T04:52:11;23.17;;;20.88;;
53519;SDS011;39397;53.204;5.778;2023-06-22T04:54:38;24.80;;;22.33;;
53519;SDS011;39397;53.204;5.778;2023-06-22T04:59:38;27.33;;;24.40;;
53519;SDS011;39397;53.204;5.778;2023-06-22T05:02:04;22.08;;;19.20;;
53519;SDS011;39397;53.204;5.778;2023-06-22T05:04:31;23.08;;;20.67;;
53519;SDS011;39397;53.204;5.778;2023-06-22T05:06:57;25.55;;;23.00;;
53519;SDS011;39397;53.204;5.778;2023-06-22T05:09:23;26.63;;;23.92;;
53519;SDS011;39397;53.204;5.778;2023-06-22T05:11:52;27.75;;;23.67;;
53519;SDS011;39397;53.204;5.778;2023-06-22T05:14:18;27.20;;;24.42;;
53519;SDS011;39397;53.204;5.778;2023-06-22T05:16:46;25.73;;;23.00;;
53519;SDS011;39397;53.204;5.778;2023-06-22T05:19:12;25.33;;;22.70;;
53519;SDS011;39397;53.204;5.778;2023-06-22T05:21:38;24.08;;;21.13;;
53519;SDS011;39397;53.204;5.778;2023-06-22T05:24:04;24.48;;;21.67;;
53519;SDS011;39397;53.204;5.778;2023-06-22T05:26:30;27.23;;;22.38;;
53519;SDS011;39397;53.204;5.778;2023-06-22T05:28:58;25.10;;;22.05;;
53519;SDS011;39397;53.204;5.778;2023-06-22T05:31:25;25.58;;;22.88;;
53519;SDS011;39397;53.204;5.778;2023-06-22T05:33:52;24.13;;;20.80;;
53519;SDS011;39397;53.204;5.778;2023-06-22T05:36:18;25.60;;;22.80;;
53519;SDS011;39397;53.204;5.778;2023-06-22T05:38:50;25.08;;;22.58;;
53519;SDS011;39397;53.204;5.778;2023-06-22T05:41:17;25.08;;;22.38;;
53519;SDS011;39397;53.204;5.778;2023-06-22T05:43:44;28.60;;;22.38;;
53519;SDS011;39397;53.204;5.778;2023-06-22T05:46:10;24.90;;;22.20;;
53519;SDS011;39397;53.204;5.778;2023-06-22T05:48:35;25.38;;;22.08;;
53519;SDS011;39397;53.204;5.778;2023-06-22T05:51:01;26.77;;;21.02;;
53519;SDS011;39397;53.204;5.778;2023-06-22T05:53:27;24.65;;;21.33;;
53519;SDS011;39397;53.204;5.778;2023-06-22T05:55:52;21.67;;;19.38;;
53519;SDS011;39397;53.204;5.778;2023-06-22T05:58:18;22.48;;;19.25;;
53519;SDS011;39397;53.204;5.778;2023-06-22T06:00:44;25.55;;;20.27;;
53519;SDS011;39397;53.204;5.778;2023-06-22T06:03:11;21.88;;;19.08;;
53519;SDS011;39397;53.204;5.778;2023-06-22T06:05:37;23.15;;;17.40;;
53519;SDS011;39397;53.204;5.778;2023-06-22T06:08:03;21.38;;;19.13;;
53519;SDS011;39397;53.204;5.778;2023-06-22T06:10:31;21.75;;;16.38;;
53519;SDS011;39397;53.204;5.778;2023-06-22T06:12:57;20.75;;;17.73;;
53519;SDS011;39397;53.204;5.778;2023-06-22T06:15:23;18.85;;;16.35;;
53519;SDS011;39397;53.204;5.778;2023-06-22T06:17:50;18.83;;;16.80;;
53519;SDS011;39397;53.204;5.778;2023-06-22T06:20:18;19.33;;;17.17;;
53519;SDS011;39397;53.204;5.778;2023-06-22T06:22:46;16.40;;;14.77;;
53519;SDS011;39397;53.204;5.778;2023-06-22T06:25:12;18.38;;;16.50;;
53519;SDS011;39397;53.204;5.778;2023-06-22T06:27:44;16.80;;;15.00;;
53519;SDS011;39397;53.204;5.778;2023-06-22T06:30:11;16.23;;;14.55;;
53519;SDS011;39397;53.204;5.778;2023-06-22T06:32:38;16.52;;;14.93;;
53519;SDS011;39397;53.204;5.778;2023-06-22T06:35:08;18.13;;;15.77;;
53519;SDS011;39397;53.204;5.778;2023-06-22T06:37:41;18.27;;;15.70;;
53519;SDS011;39397;53.204;5.778;2023-06-22T06:42:39;15.20;;;13.52;;
53519;SDS011;39397;53.204;5.778;2023-06-22T06:45:15;15.13;;;13.07;;
53519;SDS011;39397;53.204;5.778;2023-06-22T06:47:41;11.98;;;10.50;;
53519;SDS011;39397;53.204;5.778;2023-06-22T06:50:07;14.80;;;12.02;;
53519;SDS011;39397;53.204;5.778;2023-06-22T06:52:33;14.82;;;11.82;;
53519;SDS011;39397;53.204;5.778;2023-06-22T06:54:59;13.25;;;11.38;;
53519;SDS011;39397;53.204;5.778;2023-06-22T06:57:25;15.00;;;11.55;;
53519;SDS011;39397;53.204;5.778;2023-06-22T06:59:56;12.30;;;10.68;;
53519;SDS011;39397;53.204;5.778;2023-06-22T07:02:25;12.43;;;10.60;;
53519;SDS011;39397;53.204;5.778;2023-06-22T07:04:53;16.02;;;11.20;;
53519;SDS011;39397;53.204;5.778;2023-06-22T07:07:21;11.90;;;10.68;;
53519;SDS011;39397;53.204;5.778;2023-06-22T07:09:48;14.25;;;12.20;;
53519;SDS011;39397;53.204;5.778;2023-06-22T07:12:13;13.57;;;11.90;;
53519;SDS011;39397;53.204;5.778;2023-06-22T07:14:39;13.65;;;10.82;;
53519;SDS011;39397;53.204;5.778;2023-06-22T07:17:05;15.98;;;13.80;;
53519;SDS011;39397;53.204;5.778;2023-06-22T07:19:32;15.60;;;13.95;;
53519;SDS011;39397;53.204;5.778;2023-06-22T07:21:58;15.43;;;12.60;;
53519;SDS011;39397;53.204;5.778;2023-06-22T07:24:24;14.25;;;12.38;;
53519;SDS011;39397;53.204;5.778;2023-06-22T07:26:50;12.05;;;10.80;;
53519;SDS011;39397;53.204;5.778;2023-06-22T07:29:16;12.82;;;11.48;;
53519;SDS011;39397;53.204;5.778;2023-06-22T07:31:42;12.35;;;10.75;;
53519;SDS011;39397;53.204;5.778;2023-06-22T07:34:08;12.15;;;10.70;;
53519;SDS011;39397;53.204;5.778;2023-06-22T07:36:34;12.02;;;9.38;;
53519;SDS011;39397;53.204;5.778;2023-06-22T07:39:01;13.50;;;12.10;;
53519;SDS011;39397;53.204;5.778;2023-06-22T07:41:28;12.38;;;10.20;;
53519;SDS011;39397;53.204;5.778;2023-06-22T07:43:54;13.35;;;11.75;;
53519;SDS011;39397;53.204;5.778;2023-06-22T07:46:20;15.70;;;12.68;;
53519;SDS011;39397;53.204;5.778;2023-06-22T07:48:45;12.25;;;10.63;;
53519;SDS011;39397;53.204;5.778;2023-06-22T07:51:11;13.45;;;10.35;;
53519;SDS011;39397;53.204;5.778;2023-06-22T07:53:40;12.38;;;11.07;;
53519;SDS011;39397;53.204;5.778;2023-06-22T07:56:07;13.38;;;11.98;;
53519;SDS011;39397;53.204;5.778;2023-06-22T07:58:35;11.68;;;10.48;;
53519;SDS011;39397;53.204;5.778;2023-06-22T08:01:01;13.90;;;11.85;;
53519;SDS011;39397;53.204;5.778;2023-06-22T08:03:27;13.50;;;11.50;;
53519;SDS011;39397;53.204;5.778;2023-06-22T08:05:53;15.13;;;13.27;;
53519;SDS011;39397;53.204;5.778;2023-06-22T08:08:18;13.75;;;11.95;;
53519;SDS011;39397;53.204;5.778;2023-06-22T08:10:44;14.82;;;11.27;;
53519;SDS011;39397;53.204;5.778;2023-06-22T08:13:10;14.23;;;12.00;;
53519;SDS011;39397;53.204;5.778;2023-06-22T08:15:36;13.23;;;11.13;;
53519;SDS011;39397;53.204;5.778;2023-06-22T08:18:02;14.32;;;12.93;;
53519;SDS011;39397;53.204;5.778;2023-06-22T08:20:27;14.85;;;13.20;;
53519;SDS011;39397;53.204;5.778;2023-06-22T08:22:54;13.40;;;12.00;;
53519;SDS011;39397;53.204;5.778;2023-06-22T08:25:21;11.48;;;10.30;;
53519;SDS011;39397;53.204;5.778;2023-06-22T08:27:47;14.40;;;12.93;;
53519;SDS011;39397;53.204;5.778;2023-06-22T08:30:13;15.25;;;13.65;;
53519;SDS011;39397;53.204;5.778;2023-06-22T08:32:39;13.63;;;12.23;;
53519;SDS011;39397;53.204;5.778;2023-06-22T08:35:05;14.00;;;11.32;;
53519;SDS011;39397;53.204;5.778;2023-06-22T08:37:33;13.35;;;10.60;;
53519;SDS011;39397;53.204;5.778;2023-06-22T08:40:00;12.80;;;11.38;;
53519;SDS011;39397;53.204;5.778;2023-06-22T08:42:26;12.48;;;11.15;;
53519;SDS011;39397;53.204;5.778;2023-06-22T08:44:52;12.60;;;10.40;;
53519;SDS011;39397;53.204;5.778;2023-06-22T08:47:19;15.38;;;11.85;;
53519;SDS011;39397;53.204;5.778;2023-06-22T08:49:46;12.75;;;11.40;;
53519;SDS011;39397;53.204;5.778;2023-06-22T08:52:12;11.98;;;10.30;;
53519;SDS011;39397;53.204;5.778;2023-06-22T08:54:38;12.65;;;11.35;;
53519;SDS011;39397;53.204;5.778;2023-06-22T08:57:03;12.98;;;10.57;;
53519;SDS011;39397;53.204;5.778;2023-06-22T08:59:29;11.85;;;8.95;;
53519;SDS011;39397;53.204;5.778;2023-06-22T09:01:55;10.07;;;8.88;;
53519;SDS011;39397;53.204;5.778;2023-06-22T09:04:21;10.75;;;7.72;;
53519;SDS011;39397;53.204;5.778;2023-06-22T09:06:47;10.48;;;9.32;;
53519;SDS011;39397;53.204;5.778;2023-06-22T09:09:15;11.63;;;9.52;;
53519;SDS011;39397;53.204;5.778;2023-06-22T09:11:41;14.27;;;11.30;;
53519;SDS011;39397;53.204;5.778;2023-06-22T09:14:08;9.70;;;8.63;;
53519;SDS011;39397;53.204;5.778;2023-06-22T09:16:34;9.63;;;8.15;;
53519;SDS011;39397;53.204;5.778;2023-06-22T09:19:00;10.18;;;8.77;;
53519;SDS011;39397;53.204;5.778;2023-06-22T09:21:25;12.80;;;9.75;;
53519;SDS011;39397;53.204;5.778;2023-06-22T09:23:51;9.57;;;7.75;;
53519;SDS011;39397;53.204;5.778;2023-06-22T09:26:17;10.20;;;8.13;;
53519;SDS011;39397;53.204;5.778;2023-06-22T09:28:43;10.55;;;7.82;;
53519;SDS011;39397;53.204;5.778;2023-06-22T09:31:09;10.27;;;8.18;;
53519;SDS011;39397;53.204;5.778;2023-06-22T09:33:35;9.07;;;6.97;;
53519;SDS011;39397;53.204;5.778;2023-06-22T09:36:03;9.13;;;6.80;;
53519;SDS011;39397;53.204;5.778;2023-06-22T09:38:35;8.27;;;6.22;;
53519;SDS011;39397;53.204;5.778;2023-06-22T09:41:01;8.40;;;6.43;;
53519;SDS011;39397;53.204;5.778;2023-06-22T09:43:27;8.80;;;6.55;;
53519;SDS011;39397;53.204;5.778;2023-06-22T09:45:53;9.07;;;5.32;;
53519;SDS011;39397;53.204;5.778;2023-06-22T09:48:19;9.68;;;7.28;;
53519;SDS011;39397;53.204;5.778;2023-06-22T09:50:44;8.95;;;7.20;;
53519;SDS011;39397;53.204;5.778;2023-06-22T09:53:10;10.07;;;7.38;;
53519;SDS011;39397;53.204;5.778;2023-06-22T09:55:36;11.77;;;7.90;;
53519;SDS011;39397;53.204;5.778;2023-06-22T09:58:01;10.43;;;7.82;;
53519;SDS011;39397;53.204;5.778;2023-06-22T10:00:27;10.23;;;6.63;;
53519;SDS011;39397;53.204;5.778;2023-06-22T10:02:53;10.07;;;7.07;;
53519;SDS011;39397;53.204;5.778;2023-06-22T10:05:19;12.20;;;8.20;;
53519;SDS011;39397;53.204;5.778;2023-06-22T10:07:44;9.73;;;5.75;;
53519;SDS011;39397;53.204;5.778;2023-06-22T10:10:11;9.40;;;7.00;;
53519;SDS011;39397;53.204;5.778;2023-06-22T10:12:40;7.78;;;6.93;;
53519;SDS011;39397;53.204;5.778;2023-06-22T10:15:08;8.32;;;6.40;;
53519;SDS011;39397;53.204;5.778;2023-06-22T10:17:34;7.47;;;5.97;;
53519;SDS011;39397;53.204;5.778;2023-06-22T10:20:00;9.50;;;6.90;;
53519;SDS011;39397;53.204;5.778;2023-06-22T10:22:31;11.02;;;7.32;;
53519;SDS011;39397;53.204;5.778;2023-06-22T10:24:56;9.15;;;6.10;;
53519;SDS011;39397;53.204;5.778;2023-06-22T10:27:22;9.00;;;8.02;;
53519;SDS011;39397;53.204;5.778;2023-06-22T10:29:48;7.50;;;6.57;;
53519;SDS011;39397;53.204;5.778;2023-06-22T10:32:13;8.45;;;5.60;;
53519;SDS011;39397;53.204;5.778;2023-06-22T10:34:39;7.65;;;5.82;;
53519;SDS011;39397;53.204;5.778;2023-06-22T10:37:05;6.60;;;5.15;;
53519;SDS011;39397;53.204;5.778;2023-06-22T10:39:31;7.70;;;5.72;;
53519;SDS011;39397;53.204;5.778;2023-06-22T10:41:56;7.18;;;5.00;;
53519;SDS011;39397;53.204;5.778;2023-06-22T10:44:22;8.45;;;6.15;;
53519;SDS011;39397;53.204;5.778;2023-06-22T10:46:47;6.32;;;4.55;;
53519;SDS011;39397;53.204;5.778;2023-06-22T10:49:13;10.60;;;6.10;;
53519;SDS011;39397;53.204;5.778;2023-06-22T10:51:39;8.95;;;5.40;;
53519;SDS011;39397;53.204;5.778;2023-06-22T10:54:05;6.85;;;4.72;;
53519;SDS011;39397;53.204;5.778;2023-06-22T10:56:30;6.40;;;5.38;;
53519;SDS011;39397;53.204;5.778;2023-06-22T10:58:58;7.30;;;5.05;;
53519;SDS011;39397;53.204;5.778;2023-06-22T11:01:24;7.57;;;5.05;;
53519;SDS011;39397;53.204;5.778;2023-06-22T11:03:49;8.23;;;5.53;;
53519;SDS011;39397;53.204;5.778;2023-06-22T11:06:15;6.50;;;4.47;;
53519;SDS011;39397;53.204;5.778;2023-06-22T11:08:43;9.07;;;4.70;;
53519;SDS011;39397;53.204;5.778;2023-06-22T11:11:10;6.63;;;3.75;;
53519;SDS011;39397;53.204;5.778;2023-06-22T11:13:36;7.60;;;4.85;;
53519;SDS011;39397;53.204;5.778;2023-06-22T11:16:01;6.60;;;5.00;;
53519;SDS011;39397;53.204;5.778;2023-06-22T11:18:27;6.15;;;4.18;;
53519;SDS011;39397;53.204;5.778;2023-06-22T11:20:53;6.05;;;4.70;;
53519;SDS011;39397;53.204;5.778;2023-06-22T11:23:18;8.68;;;5.20;;
53519;SDS011;39397;53.204;5.778;2023-06-22T11:25:44;6.93;;;4.63;;
53519;SDS011;39397;53.204;5.778;2023-06-22T11:28:11;6.32;;;4.80;;
53519;SDS011;39397;53.204;5.778;2023-06-22T11:30:37;9.32;;;5.85;;
53519;SDS011;39397;53.204;5.778;2023-06-22T11:33:02;7.80;;;5.32;;
53519;SDS011;39397;53.204;5.778;2023-06-22T11:35:28;7.15;;;5.13;;
53519;SDS011;39397;53.204;5.778;2023-06-22T11:37:54;6.32;;;4.63;;
53519;SDS011;39397;53.204;5.778;2023-06-22T11:40:21;6.25;;;5.13;;
53519;SDS011;39397;53.204;5.778;2023-06-22T11:42:48;9.02;;;5.03;;
53519;SDS011;39397;53.204;5.778;2023-06-22T11:45:13;6.35;;;4.13;;
53519;SDS011;39397;53.204;5.778;2023-06-22T11:47:39;5.07;;;3.80;;
53519;SDS011;39397;53.204;5.778;2023-06-22T11:50:05;6.88;;;4.53;;
53519;SDS011;39397;53.204;5.778;2023-06-22T11:52:32;5.60;;;3.70;;
53519;SDS011;39397;53.204;5.778;2023-06-22T11:54:59;6.22;;;3.78;;
53519;SDS011;39397;53.204;5.778;2023-06-22T11:57:24;9.13;;;4.25;;
53519;SDS011;39397;53.204;5.778;2023-06-22T11:59:50;5.88;;;3.50;;
53519;SDS011;39397;53.204;5.778;2023-06-22T12:02:16;5.43;;;4.15;;
53519;SDS011;39397;53.204;5.778;2023-06-22T12:04:41;7.07;;;4.00;;
53519;SDS011;39397;53.204;5.778;2023-06-22T12:07:07;5.35;;;3.30;;
53519;SDS011;39397;53.204;5.778;2023-06-22T12:09:33;4.60;;;3.60;;
53519;SDS011;39397;53.204;5.778;2023-06-22T12:11:58;5.10;;;3.22;;
53519;SDS011;39397;53.204;5.778;2023-06-22T12:14:24;5.68;;;3.28;;
53519;SDS011;39397;53.204;5.778;2023-06-22T12:16:50;6.90;;;4.10;;
53519;SDS011;39397;53.204;5.778;2023-06-22T12:19:15;6.18;;;3.45;;
53519;SDS011;39397;53.204;5.778;2023-06-22T12:21:41;6.53;;;2.95;;
53519;SDS011;39397;53.204;5.778;2023-06-22T12:24:10;5.38;;;3.03;;
53519;SDS011;39397;53.204;5.778;2023-06-22T12:26:36;5.45;;;3.63;;
53519;SDS011;39397;53.204;5.778;2023-06-22T12:29:02;5.10;;;3.15;;
53519;SDS011;39397;53.204;5.778;2023-06-22T12:31:27;4.90;;;2.80;;
53519;SDS011;39397;53.204;5.778;2023-06-22T12:33:53;4.50;;;2.83;;
53519;SDS011;39397;53.204;5.778;2023-06-22T12:36:19;4.32;;;2.47;;
53519;SDS011;39397;53.204;5.778;2023-06-22T12:38:44;4.53;;;2.35;;
53519;SDS011;39397;53.204;5.778;2023-06-22T12:41:10;3.55;;;2.10;;
53519;SDS011;39397;53.204;5.778;2023-06-22T12:43:36;4.38;;;2.25;;
53519;SDS011;39397;53.204;5.778;2023-06-22T12:46:01;4.60;;;2.38;;
53519;SDS011;39397;53.204;5.778;2023-06-22T12:48:27;5.50;;;2.58;;
53519;SDS011;39397;53.204;5.778;2023-06-22T12:50:53;4.05;;;2.25;;
53519;SDS011;39397;53.204;5.778;2023-06-22T12:53:18;3.60;;;2.50;;
53519;SDS011;39397;53.204;5.778;2023-06-22T12:55:44;5.15;;;2.15;;
53519;SDS011;39397;53.204;5.778;2023-06-22T12:58:10;9.73;;;2.13;;
53519;SDS011;39397;53.204;5.778;2023-06-22T13:00:36;6.28;;;2.05;;
53519;SDS011;39397;53.204;5.778;2023-06-22T13:03:02;4.03;;;1.98;;
53519;SDS011;39397;53.204;5.778;2023-06-22T13:05:28;3.83;;;1.80;;
53519;SDS011;39397;53.204;5.778;2023-06-22T13:07:55;3.90;;;1.52;;
53519;SDS011;39397;53.204;5.778;2023-06-22T13:10:21;3.17;;;1.75;;
53519;SDS011;39397;53.204;5.778;2023-06-22T13:12:47;3.95;;;1.48;;
53519;SDS011;39397;53.204;5.778;2023-06-22T13:15:12;2.30;;;1.30;;
53519;SDS011;39397;53.204;5.778;2023-06-22T13:17:38;4.75;;;1.58;;
53519;SDS011;39397;53.204;5.778;2023-06-22T13:20:04;2.97;;;1.40;;
53519;SDS011;39397;53.204;5.778;2023-06-22T13:22:31;2.75;;;1.35;;
53519;SDS011;39397;53.204;5.778;2023-06-22T13:24:59;2.65;;;1.10;;
53519;SDS011;39397;53.204;5.778;2023-06-22T13:27:25;2.42;;;1.15;;
53519;SDS011;39397;53.204;5.778;2023-06-22T13:29:52;2.60;;;1.30;;
53519;SDS011;39397;53.204;5.778;2023-06-22T13:32:18;2.20;;;1.17;;
53519;SDS011;39397;53.204;5.778;2023-06-22T13:34:44;2.45;;;1.27;;
53519;SDS011;39397;53.204;5.778;2023-06-22T13:37:09;3.13;;;1.35;;
53519;SDS011;39397;53.204;5.778;2023-06-22T13:39:35;2.20;;;0.90;;
53519;SDS011;39397;53.204;5.778;2023-06-22T13:42:00;2.00;;;1.15;;
53519;SDS011;39397;53.204;5.778;2023-06-22T13:44:26;3.53;;;0.98;;
53519;SDS011;39397;53.204;5.778;2023-06-22T13:46:56;2.83;;;1.00;;
53519;SDS011;39397;53.204;5.778;2023-06-22T13:49:22;2.88;;;1.20;;
53519;SDS011;39397;53.204;5.778;2023-06-22T13:51:48;2.78;;;1.10;;
53519;SDS011;39397;53.204;5.778;2023-06-22T13:54:14;2.47;;;1.20;;
53519;SDS011;39397;53.204;5.778;2023-06-22T13:56:40;2.33;;;1.40;;
53519;SDS011;39397;53.204;5.778;2023-06-22T13:59:05;2.80;;;1.13;;
53519;SDS011;39397;53.204;5.778;2023-06-22T14:01:35;2.90;;;1.30;;
53519;SDS011;39397;53.204;5.778;2023-06-22T14:04:02;2.38;;;1.08;;
53519;SDS011;39397;53.204;5.778;2023-06-22T14:06:27;3.08;;;1.10;;
53519;SDS011;39397;53.204;5.778;2023-06-22T14:08:53;3.20;;;1.10;;
53519;SDS011;39397;53.204;5.778;2023-06-22T14:11:19;2.47;;;1.02;;
53519;SDS011;39397;53.204;5.778;2023-06-22T14:13:44;2.35;;;1.10;;
53519;SDS011;39397;53.204;5.778;2023-06-22T14:16:10;4.25;;;1.23;;
53519;SDS011;39397;53.204;5.778;2023-06-22T14:18:36;4.45;;;1.23;;
53519;SDS011;39397;53.204;5.778;2023-06-22T14:21:02;2.55;;;1.33;;
53519;SDS011;39397;53.204;5.778;2023-06-22T14:23:27;2.60;;;1.30;;
53519;SDS011;39397;53.204;5.778;2023-06-22T14:25:53;2.17;;;1.02;;
53519;SDS011;39397;53.204;5.778;2023-06-22T14:28:19;3.08;;;1.27;;
53519;SDS011;39397;53.204;5.778;2023-06-22T14:30:45;2.67;;;1.00;;
53519;SDS011;39397;53.204;5.778;2023-06-22T14:33:11;3.92;;;1.50;;
53519;SDS011;39397;53.204;5.778;2023-06-22T14:35:37;2.85;;;1.45;;
53519;SDS011;39397;53.204;5.778;2023-06-22T14:38:03;2.47;;;1.10;;
53519;SDS011;39397;53.204;5.778;2023-06-22T14:40:29;2.53;;;1.15;;
53519;SDS011;39397;53.204;5.778;2023-06-22T14:42:54;1.98;;;1.10;;
53519;SDS011;39397;53.204;5.778;2023-06-22T14:45:22;3.17;;;1.30;;
53519;SDS011;39397;53.204;5.778;2023-06-22T14:47:48;3.60;;;1.40;;